Coffee City, Texas
Current Conditions -  °F | °C
As of 10:15 AM on Sunday 25 Jan 2015 (Local Time) from KPSN Reporting Station
Clear Clear  
Wind Chill: 53°   Ceiling: Unl
Heat Index: 53°   Visibility: 10mi
Dew Point: 40°   Wind: 6mph
Humidity: 62%   Direction: 330°NNW
Pressure: 30.04"   Gusts: NA
Location:  32.0056°N, 95.5543°W
Report Text: KPSN 251615Z AUTO 33005KT 10SM CLR 11/05 A3004 RMK AO2 T01170047
Loading
Personal Weather Stations






























Interactive Weather Map New forecast layout! Learn more

10-Day Weather Forecast

Advertisements
Track Severe Weather on mobile